Terminal Aerodrome Forecast
Issued by NWS Wilmington, OH

Current Version | Previous Version | Graphics & Text | Print | Product List | Glossary On
Versions: 1 2 3 4 5 6 7 8 9 10 11 12 13 14 15
000
FTUS41 KILN 210528
TAFCMH
TAF
KCMH 210528Z 2106/2206 17005KT P6SM BKN035 BKN200
     FM210800 18005KT P6SM OVC020
     FM211400 19008KT P6SM SCT025 BKN200
     FM220300 15004KT P6SM SCT025 BKN070=

USA.gov is the U.S. government's official web portal to all federal, state and local government web resources and services.